Time;durP1;ratioP1;P1;durP2;ratioP2;P2;SDS_P1;SDS_P2;PMS_P1;PMS_P2;Temp;Humidity;BMP_temperature;BMP_pressure;BME280_temperature;BME280_humidity;BME280_pressure;Samples;Min_cycle;Max_cycle;Signal;HPM_P1;HPM_P2
2023/10/03 01:41:27;;;;;;;10.70;10.40;;;14.20;99.90;;;;;;5114696;22;20496;-84
2023/10/03 01:43:54;;;;;;;10.38;10.07;;;14.20;99.90;;;;;;4987413;28;20260;-82
2023/10/03 01:46:22;;;;;;;10.60;10.30;;;14.20;99.90;;;;;;4989351;28;20308;-81
2023/10/03 01:48:49;;;;;;;10.75;10.45;;;14.20;99.90;;;;;;4989356;28;20272;-82
2023/10/03 01:51:16;;;;;;;10.68;10.38;;;14.20;99.90;;;;;;4990561;28;20238;-81
2023/10/03 01:53:44;;;;;;;10.43;10.13;;;14.20;99.90;;;;;;4992704;28;20240;-81
2023/10/03 01:56:11;;;;;;;10.60;10.30;;;14.20;99.90;;;;;;4991462;28;20233;-82
2023/10/03 01:58:39;;;;;;;10.65;10.35;;;14.20;99.90;;;;;;4992516;28;20233;-84
2023/10/03 02:01:07;;;;;;;10.60;10.30;;;14.20;99.90;;;;;;4992242;28;20240;-83
2023/10/03 02:03:35;;;;;;;10.45;10.15;;;14.20;99.90;;;;;;4992086;28;20248;-82
2023/10/03 02:06:06;;;;;;;10.55;10.25;;;14.20;99.90;;;;;;4992151;28;20242;-83
2023/10/03 02:08:33;;;;;;;10.70;10.40;;;14.30;99.90;;;;;;4990716;28;20254;-82
2023/10/03 02:11:00;;;;;;;10.55;10.25;;;14.20;99.90;;;;;;4990570;28;20300;-82
2023/10/03 02:13:27;;;;;;;10.55;10.25;;;14.30;99.90;;;;;;4992124;28;20248;-82
2023/10/03 02:15:56;;;;;;;10.45;10.15;;;14.30;99.90;;;;;;4992298;28;20235;-82
2023/10/03 02:18:24;;;;;;;10.27;9.98;;;14.20;99.90;;;;;;4991044;28;20251;-82
2023/10/03 02:20:55;;;;;;;10.60;10.30;;;14.20;99.90;;;;;;4990217;28;20237;-82
2023/10/03 02:23:24;;;;;;;10.48;10.18;;;14.10;99.90;;;;;;4989269;28;20248;-82
2023/10/03 02:25:52;;;;;;;10.40;10.10;;;14.10;99.90;;;;;;4988715;28;20225;-82
2023/10/03 02:28:20;;;;;;;10.45;10.15;;;14.10;99.90;;;;;;4988028;28;20237;-83
2023/10/03 02:30:50;;;;;;;10.57;10.27;;;14.10;99.90;;;;;;4987326;28;20236;-82
2023/10/03 02:33:22;;;;;;;10.65;10.35;;;14.00;99.90;;;;;;4988580;28;20269;-82
2023/10/03 02:35:50;;;;;;;10.60;10.30;;;14.00;99.90;;;;;;4987150;28;20285;-82
2023/10/03 02:38:24;;;;;;;10.80;10.50;;;14.00;99.90;;;;;;4986554;28;20237;-83
2023/10/03 02:40:52;;;;;;;10.50;10.20;;;14.00;99.90;;;;;;4986792;28;20293;-82
2023/10/03 02:43:19;;;;;;;10.40;10.10;;;13.90;99.90;;;;;;4986481;28;20272;-83
2023/10/03 02:45:48;;;;;;;10.50;10.20;;;14.00;99.90;;;;;;4987599;28;20209;-82
2023/10/03 02:48:15;;;;;;;10.60;10.30;;;13.90;99.90;;;;;;4986607;28;20234;-82
2023/10/03 02:50:47;;;;;;;10.33;10.03;;;13.90;99.90;;;;;;4986797;28;20762;-82
2023/10/03 02:53:19;;;;;;;10.60;10.30;;;13.90;99.90;;;;;;4986487;28;20272;-82
2023/10/03 02:55:46;;;;;;;10.47;10.17;;;13.90;99.90;;;;;;4987082;28;20218;-82
2023/10/03 02:58:14;;;;;;;10.50;10.20;;;13.90;99.90;;;;;;4986741;28;20237;-82
2023/10/03 03:00:42;;;;;;;10.52;10.23;;;13.90;99.90;;;;;;4987068;28;20236;-83
2023/10/03 03:03:09;;;;;;;10.60;10.30;;;13.90;99.90;;;;;;4987113;28;20262;-82
2023/10/03 03:05:38;;;;;;;10.50;10.20;;;13.90;99.90;;;;;;4987112;28;20249;-82
2023/10/03 03:08:21;;;;;;;10.50;10.20;;;13.90;99.90;;;;;;4986505;28;20237;-82
2023/10/03 03:10:54;;;;;;;10.57;10.27;;;13.90;99.90;;;;;;4986700;28;20325;-82
2023/10/03 03:13:22;;;;;;;10.57;10.27;;;13.90;99.90;;;;;;4986109;28;20297;-82
2023/10/03 03:15:56;;;;;;;10.50;10.20;;;13.90;99.90;;;;;;4986729;28;20217;-82
2023/10/03 03:18:25;;;;;;;10.52;10.23;;;13.90;99.90;;;;;;4986806;28;20265;-82
2023/10/03 03:20:57;;;;;;;10.63;10.32;;;13.90;99.90;;;;;;4987009;28;20233;-82
2023/10/03 03:23:30;;;;;;;10.70;10.40;;;13.80;99.90;;;;;;4985887;28;20248;-82
2023/10/03 03:26:12;;;;;;;10.47;10.17;;;13.80;99.90;;;;;;4986160;28;20238;-82
2023/10/03 03:28:40;;;;;;;10.40;10.10;;;13.80;99.90;;;;;;4986901;28;20244;-82
2023/10/03 03:31:17;;;;;;;10.40;10.10;;;13.80;99.90;;;;;;4986111;28;20265;-83
2023/10/03 03:33:47;;;;;;;10.23;9.93;;;13.80;99.90;;;;;;4986147;28;20244;-82
2023/10/03 03:36:18;;;;;;;10.23;9.93;;;13.80;99.90;;;;;;4985853;28;20236;-84
2023/10/03 03:38:49;;;;;;;10.23;9.93;;;13.80;99.90;;;;;;4985932;28;20245;-82
2023/10/03 03:41:17;;;;;;;10.30;10.00;;;13.80;99.90;;;;;;4987012;28;20229;-82
2023/10/03 03:43:44;;;;;;;10.20;9.90;;;13.80;99.90;;;;;;4986391;28;20261;-82
2023/10/03 03:46:12;;;;;;;10.30;10.00;;;13.80;99.90;;;;;;4991165;28;20267;-82
2023/10/03 03:48:40;;;;;;;10.35;10.05;;;13.80;99.90;;;;;;4991867;28;20233;-82
2023/10/03 03:51:11;;;;;;;10.50;10.20;;;13.80;99.90;;;;;;4989914;28;20257;-83
2023/10/03 03:53:38;;;;;;;10.40;10.10;;;13.70;99.90;;;;;;4989358;28;20233;-82
2023/10/03 03:56:07;;;;;;;10.50;10.20;;;13.70;99.90;;;;;;4989251;28;20221;-82
2023/10/03 03:58:37;;;;;;;10.50;10.20;;;13.70;99.90;;;;;;4989591;28;20233;-82
2023/10/03 04:01:10;;;;;;;10.80;10.40;;;13.60;99.90;;;;;;4989649;28;20292;-83
2023/10/03 04:03:38;;;;;;;10.70;10.40;;;13.60;99.90;;;;;;4989259;28;20241;-82
2023/10/03 04:06:06;;;;;;;10.90;10.50;;;13.50;99.90;;;;;;4989603;28;20224;-82
2023/10/03 04:08:34;;;;;;;11.20;10.80;;;13.50;99.90;;;;;;4989564;28;20288;-82
2023/10/03 04:11:02;;;;;;;10.80;10.50;;;13.50;99.90;;;;;;4989050;28;20264;-82
2023/10/03 04:13:31;;;;;;;10.70;10.40;;;13.40;99.90;;;;;;4989640;28;20308;-82
2023/10/03 04:16:01;;;;;;;11.00;10.60;;;13.30;99.90;;;;;;4989290;28;20281;-82
2023/10/03 04:18:28;;;;;;;10.70;10.40;;;13.30;99.90;;;;;;4989163;28;20252;-82
2023/10/03 04:20:55;;;;;;;10.77;10.47;;;13.30;99.90;;;;;;4988921;28;20237;-82
2023/10/03 04:23:22;;;;;;;10.80;10.50;;;13.20;99.90;;;;;;4988604;28;20260;-83
2023/10/03 04:25:49;;;;;;;10.70;10.40;;;13.20;99.90;;;;;;4989096;28;20253;-83
2023/10/03 04:28:17;;;;;;;10.70;10.40;;;13.20;99.90;;;;;;4988237;28;20264;-82
2023/10/03 04:30:47;;;;;;;10.70;10.40;;;13.10;99.90;;;;;;4989312;28;20249;-82
2023/10/03 04:33:20;;;;;;;10.60;10.30;;;13.10;99.90;;;;;;4988598;28;20737;-82
2023/10/03 04:35:48;;;;;;;10.60;10.30;;;13.10;99.90;;;;;;4990952;28;20549;-82
2023/10/03 04:38:16;;;;;;;10.60;10.30;;;13.00;99.90;;;;;;4989542;28;20247;-82
2023/10/03 04:40:45;;;;;;;10.50;10.20;;;12.90;99.90;;;;;;4989523;28;20305;-82
2023/10/03 04:43:12;;;;;;;10.50;10.20;;;12.90;99.90;;;;;;4988865;28;20252;-82
2023/10/03 04:45:40;;;;;;;10.50;10.20;;;12.80;99.90;;;;;;4993707;28;20213;-82
2023/10/03 04:48:10;;;;;;;10.47;10.17;;;12.80;99.90;;;;;;4996825;28;20225;-82
2023/10/03 04:50:40;;;;;;;10.57;10.27;;;12.70;99.90;;;;;;4988398;28;20240;-82
2023/10/03 04:53:14;;;;;;;10.60;10.30;;;12.60;99.90;;;;;;4988646;28;20238;-83
2023/10/03 04:55:44;;;;;;;10.80;10.50;;;12.60;99.90;;;;;;4988520;28;20244;-82
2023/10/03 04:58:12;;;;;;;10.70;10.40;;;12.50;99.90;;;;;;4988952;28;20242;-82
2023/10/03 05:00:39;;;;;;;11.00;10.60;;;12.50;99.90;;;;;;4989260;28;20258;-82
2023/10/03 05:03:09;;;;;;;10.80;10.50;;;12.40;99.90;;;;;;4996760;28;20237;-82
2023/10/03 05:05:37;;;;;;;10.80;10.50;;;12.40;99.90;;;;;;4995327;28;20253;-82
2023/10/03 05:08:05;;;;;;;10.90;10.50;;;12.40;99.90;;;;;;4996945;28;20305;-82
2023/10/03 05:10:33;;;;;;;10.73;10.43;;;12.40;99.90;;;;;;4998704;28;20233;-82
2023/10/03 05:13:00;;;;;;;10.60;10.30;;;12.30;99.90;;;;;;4998637;28;20285;-82
2023/10/03 05:15:30;;;;;;;10.60;10.30;;;12.40;99.90;;;;;;4999343;28;20252;-82
2023/10/03 05:17:57;;;;;;;10.70;10.40;;;12.40;99.90;;;;;;4995640;28;20241;-82
2023/10/03 05:20:35;;;;;;;10.63;10.33;;;12.30;99.90;;;;;;4993928;28;20249;-82
2023/10/03 05:23:03;;;;;;;10.60;10.30;;;12.30;99.90;;;;;;4993088;28;20237;-82
2023/10/03 05:25:30;;;;;;;10.57;10.27;;;12.40;99.90;;;;;;4992486;28;20225;-82
2023/10/03 05:27:57;;;;;;;10.70;10.40;;;12.40;99.90;;;;;;4992166;28;20229;-82
2023/10/03 05:30:25;;;;;;;10.80;10.50;;;12.40;99.90;;;;;;4993131;28;20256;-82
2023/10/03 05:32:52;;;;;;;10.70;10.40;;;12.40;99.90;;;;;;4992411;28;20226;-82
2023/10/03 05:35:21;;;;;;;10.50;10.20;;;12.40;99.90;;;;;;4990870;28;20229;-82
2023/10/03 05:37:51;;;;;;;10.40;10.10;;;12.40;99.90;;;;;;4990525;28;20233;-83
2023/10/03 05:40:20;;;;;;;10.60;10.30;;;12.40;99.90;;;;;;4990234;28;20257;-82
2023/10/03 05:42:49;;;;;;;10.83;10.53;;;12.50;99.90;;;;;;4990189;28;20246;-82
2023/10/03 05:45:18;;;;;;;10.57;10.27;;;12.50;99.90;;;;;;4989808;28;20218;-83
2023/10/03 05:47:47;;;;;;;10.37;10.07;;;12.50;99.90;;;;;;4989457;28;20249;-82
2023/10/03 05:50:16;;;;;;;10.63;10.33;;;12.50;99.90;;;;;;4989568;28;20218;-82
2023/10/03 05:52:44;;;;;;;10.40;10.10;;;12.60;99.90;;;;;;4988002;28;20233;-82
2023/10/03 05:55:14;;;;;;;10.60;10.30;;;12.70;99.90;;;;;;4988915;28;20218;-82
2023/10/03 05:57:42;;;;;;;10.80;10.50;;;12.80;99.90;;;;;;4990404;28;20238;-83
2023/10/03 06:00:16;;;;;;;10.47;10.17;;;12.90;99.90;;;;;;4989868;28;20241;-83
2023/10/03 06:02:43;;;;;;;10.43;10.13;;;12.90;99.90;;;;;;4989133;28;20241;-83
2023/10/03 06:05:13;;;;;;;10.50;10.20;;;13.00;99.90;;;;;;4989492;28;20237;-83
2023/10/03 06:07:41;;;;;;;10.43;10.13;;;13.10;99.90;;;;;;4989421;28;20257;-84
2023/10/03 06:10:10;;;;;;;10.60;10.30;;;13.20;99.90;;;;;;4988525;28;20240;-83
2023/10/03 06:12:39;;;;;;;10.27;9.97;;;13.20;99.90;;;;;;4989007;28;20352;-83
2023/10/03 06:15:12;;;;;;;10.30;10.00;;;13.30;99.90;;;;;;4990928;28;20371;-84
2023/10/03 06:17:40;;;;;;;10.30;10.00;;;13.30;99.90;;;;;;4988965;28;20301;-83
2023/10/03 06:20:10;;;;;;;10.57;10.27;;;13.30;99.90;;;;;;4989330;28;20241;-83
2023/10/03 06:22:39;;;;;;;10.40;10.10;;;13.40;99.90;;;;;;4987551;28;20240;-83
2023/10/03 06:25:07;;;;;;;10.07;9.77;;;13.50;99.90;;;;;;4987750;28;20304;-83
2023/10/03 06:27:34;;;;;;;10.27;9.97;;;13.50;99.90;;;;;;4988400;28;20233;-83
2023/10/03 06:30:04;;;;;;;10.20;9.90;;;13.60;99.90;;;;;;4988534;28;20234;-83
2023/10/03 06:32:31;;;;;;;10.00;9.70;;;13.60;99.90;;;;;;4987382;28;20263;-83
2023/10/03 06:35:00;;;;;;;9.87;9.57;;;13.70;99.90;;;;;;4988098;28;20237;-83
2023/10/03 06:37:27;;;;;;;10.10;9.80;;;13.80;99.90;;;;;;4988197;28;20221;-83
2023/10/03 06:39:54;;;;;;;10.13;9.83;;;13.80;99.90;;;;;;4989261;28;20241;-84
2023/10/03 06:42:22;;;;;;;10.47;10.17;;;13.80;99.90;;;;;;4989690;28;20233;-84
2023/10/03 06:44:49;;;;;;;10.43;10.13;;;13.90;99.90;;;;;;4989158;28;20237;-82
2023/10/03 06:47:20;;;;;;;10.10;9.80;;;14.00;99.90;;;;;;4987674;28;20770;-85
2023/10/03 06:49:49;;;;;;;10.10;9.80;;;14.00;99.90;;;;;;4987732;28;20300;-83
2023/10/03 06:52:16;;;;;;;10.27;9.98;;;14.10;99.90;;;;;;4988608;28;20301;-82
2023/10/03 06:54:43;;;;;;;10.35;10.05;;;14.20;99.90;;;;;;4989768;28;20229;-82
2023/10/03 06:57:12;;;;;;;10.50;10.20;;;14.40;99.90;;;;;;4990240;28;20233;-82
2023/10/03 06:59:39;;;;;;;10.30;10.00;;;14.60;99.90;;;;;;4989743;28;20248;-82
2023/10/03 07:02:08;;;;;;;10.18;9.88;;;14.80;99.90;;;;;;4989291;28;20242;-82
2023/10/03 07:04:38;;;;;;;10.27;9.98;;;14.90;99.90;;;;;;4989899;28;20241;-82
2023/10/03 07:07:07;;;;;;;10.35;10.05;;;15.10;99.90;;;;;;4989220;28;20272;-82
2023/10/03 07:09:34;;;;;;;10.60;10.30;;;15.20;99.90;;;;;;4988690;28;20245;-82
2023/10/03 07:12:03;;;;;;;10.60;10.30;;;15.20;99.90;;;;;;4988834;28;20301;-82
2023/10/03 07:14:31;;;;;;;10.80;10.50;;;15.20;99.90;;;;;;4989313;28;20245;-82
2023/10/03 07:16:58;;;;;;;10.48;10.18;;;15.20;99.90;;;;;;4991364;28;20269;-82
2023/10/03 07:19:25;;;;;;;10.75;10.45;;;15.20;99.90;;;;;;4995625;28;20337;-82
2023/10/03 07:21:55;;;;;;;10.65;10.35;;;15.20;99.90;;;;;;4993987;28;20248;-82
2023/10/03 07:24:24;;;;;;;10.82;10.52;;;15.30;99.90;;;;;;4993712;28;20229;-82
2023/10/03 07:26:51;;;;;;;10.80;10.50;;;15.30;99.90;;;;;;4993562;28;20237;-82
2023/10/03 07:29:20;;;;;;;10.75;10.45;;;15.40;99.90;;;;;;4993783;28;20229;-82
2023/10/03 07:31:48;;;;;;;10.50;10.20;;;15.60;99.90;;;;;;4993369;28;20252;-82
2023/10/03 07:34:17;;;;;;;10.52;10.23;;;15.70;99.90;;;;;;4994345;28;20225;-82
2023/10/03 07:36:45;;;;;;;10.77;10.48;;;15.90;99.90;;;;;;4995104;28;20229;-81
2023/10/03 07:39:15;;;;;;;10.43;10.13;;;16.10;99.90;;;;;;4994251;28;20241;-82
2023/10/03 07:41:42;;;;;;;10.65;10.35;;;16.20;99.90;;;;;;4993550;28;20323;-82
2023/10/03 07:44:09;;;;;;;10.60;10.30;;;16.40;99.90;;;;;;4988344;28;20225;-83
2023/10/03 07:46:36;;;;;;;10.40;10.10;;;16.60;99.90;;;;;;4988570;28;20245;-83
2023/10/03 07:49:04;;;;;;;10.40;10.10;;;16.70;99.90;;;;;;4987477;28;20297;-83
2023/10/03 07:51:31;;;;;;;10.43;10.13;;;16.90;99.90;;;;;;4985907;28;20241;-83
2023/10/03 07:53:58;;;;;;;10.60;10.30;;;17.10;99.90;;;;;;4986548;28;20226;-83
2023/10/03 07:56:31;;;;;;;10.50;10.20;;;17.20;99.90;;;;;;4986837;28;20301;-83
2023/10/03 07:59:01;;;;;;;10.50;10.20;;;17.40;99.90;;;;;;4986107;28;20241;-83
2023/10/03 08:01:29;;;;;;;10.30;10.00;;;17.60;99.90;;;;;;4986905;28;20240;-83
2023/10/03 08:03:58;;;;;;;10.30;10.00;;;17.80;99.90;;;;;;4986153;28;20233;-83
2023/10/03 08:06:29;;;;;;;10.07;9.77;;;18.00;99.90;;;;;;4988217;28;20313;-84
2023/10/03 08:08:59;;;;;;;10.35;10.05;;;18.20;99.90;;;;;;4986112;28;20229;-84
2023/10/03 08:11:29;;;;;;;10.05;9.75;;;18.30;99.90;;;;;;4986408;28;20222;-84
2023/10/03 08:13:57;;;;;;;10.13;9.82;;;18.50;99.90;;;;;;4985839;28;20257;-85
2023/10/03 08:16:24;;;;;;;10.10;9.80;;;18.60;99.90;;;;;;4986008;28;20244;-84
2023/10/03 08:18:57;;;;;;;10.05;9.75;;;18.80;99.90;;;;;;4986538;28;20241;-84
2023/10/03 08:21:27;;;;;;;10.25;9.95;;;18.90;99.90;;;;;;4986226;28;20241;-84
2023/10/03 08:23:55;;;;;;;10.27;9.98;;;19.10;99.90;;;;;;4986400;28;20268;-84
2023/10/03 08:26:23;;;;;;;10.20;9.90;;;19.30;99.90;;;;;;4986706;28;20237;-84
2023/10/03 08:28:59;;;;;;;10.15;9.85;;;19.60;99.90;;;;;;4993646;28;20248;-84
2023/10/03 08:31:27;;;;;;;10.20;9.90;;;19.80;99.90;;;;;;5000253;28;20236;-84
2023/10/03 08:33:56;;;;;;;10.50;10.20;;;20.10;99.90;;;;;;4986295;28;20244;-84
2023/10/03 08:36:27;;;;;;;10.50;10.20;;;20.30;99.90;;;;;;4986088;28;20256;-84
2023/10/03 08:39:04;;;;;;;10.30;10.00;;;20.50;99.90;;;;;;4986471;28;20230;-84
2023/10/03 08:41:45;;;;;;;10.40;10.10;;;20.80;99.90;;;;;;4984412;28;20234;-84
2023/10/03 08:44:14;;;;;;;10.65;10.35;;;21.00;99.90;;;;;;4983448;28;20230;-84
2023/10/03 08:46:52;;;;;;;10.52;10.23;;;21.30;99.90;;;;;;4985653;28;20351;-84
2023/10/03 08:49:21;;;;;;;10.48;10.18;;;21.40;99.90;;;;;;4985029;28;20239;-84
2023/10/03 08:51:48;;;;;;;10.40;10.10;;;21.50;99.90;;;;;;4983964;28;20237;-84
2023/10/03 08:54:16;;;;;;;10.60;10.30;;;21.80;99.90;;;;;;4983732;28;20317;-84
2023/10/03 08:56:44;;;;;;;10.60;10.30;;;22.00;99.90;;;;;;4983943;28;20230;-84
2023/10/03 08:59:15;;;;;;;10.30;10.00;;;22.30;99.90;;;;;;4983202;28;20237;-84
2023/10/03 09:01:46;;;;;;;10.05;9.75;;;22.60;99.90;;;;;;4984160;28;20332;-84
2023/10/03 09:04:17;;;;;;;10.05;9.75;;;22.90;99.90;;;;;;4987951;28;20226;-84
2023/10/03 09:06:45;;;;;;;10.10;9.80;;;23.10;99.90;;;;;;4985648;28;20233;-82
2023/10/03 09:09:14;;;;;;;10.02;9.73;;;23.40;99.90;;;;;;4985714;28;20237;-83
2023/10/03 09:11:44;;;;;;;10.20;9.90;;;23.60;99.90;;;;;;4984788;28;20249;-82
2023/10/03 09:14:19;;;;;;;10.07;9.77;;;24.00;99.90;;;;;;4984407;28;20225;-82
2023/10/03 09:16:50;;;;;;;10.00;9.70;;;24.10;99.90;;;;;;4984967;28;20304;-82
2023/10/03 09:19:23;;;;;;;9.90;9.60;;;24.40;99.90;;;;;;4983918;28;20240;-82
2023/10/03 09:21:52;;;;;;;10.23;9.93;;;24.70;99.90;;;;;;4983921;28;20230;-82
2023/10/03 09:24:22;;;;;;;10.20;9.90;;;24.90;99.90;;;;;;4984874;28;20234;-83
2023/10/03 09:26:52;;;;;;;10.35;10.05;;;25.20;99.90;;;;;;4985708;28;20237;-83
2023/10/03 09:29:30;;;;;;;10.20;9.90;;;25.60;99.90;;;;;;4984784;28;20271;-83
2023/10/03 09:32:07;;;;;;;10.20;9.90;;;25.80;99.90;;;;;;4983781;28;20236;-82
2023/10/03 09:34:40;;;;;;;10.30;10.00;;;25.90;99.90;;;;;;4984382;28;20277;-82
2023/10/03 09:37:07;;;;;;;10.00;9.70;;;26.10;99.90;;;;;;4983538;28;20237;-82
2023/10/03 09:39:39;;;;;;;10.10;9.80;;;26.10;99.90;;;;;;4983400;28;20301;-82
2023/10/03 09:42:15;;;;;;;10.35;10.05;;;26.20;99.90;;;;;;4982779;28;20306;-83
2023/10/03 09:44:45;;;;;;;10.20;9.90;;;26.50;99.90;;;;;;4983259;28;20225;-83
2023/10/03 09:47:13;;;;;;;10.30;10.00;;;26.60;99.90;;;;;;4983768;28;20239;-83
2023/10/03 09:49:41;;;;;;;10.23;9.93;;;26.70;99.90;;;;;;4983686;28;20272;-83
2023/10/03 09:52:17;;;;;;;9.98;9.68;;;27.00;99.90;;;;;;4983263;28;20698;-83
2023/10/03 09:54:45;;;;;;;10.15;9.85;;;27.10;99.90;;;;;;4983558;28;20280;-83
2023/10/03 09:57:17;;;;;;;10.25;9.95;;;27.20;99.90;;;;;;4982728;28;20265;-83
2023/10/03 09:59:48;;;;;;;10.43;10.13;;;27.30;99.90;;;;;;4983266;28;20308;-83
2023/10/03 10:02:18;;;;;;;10.32;10.02;;;27.60;99.90;;;;;;4982901;28;20242;-83
2023/10/03 10:04:50;;;;;;;10.48;10.18;;;27.60;99.90;;;;;;4983171;28;20233;-83
2023/10/03 10:07:29;;;;;;;10.55;10.25;;;27.60;99.90;;;;;;4983485;28;20249;-83
2023/10/03 10:10:11;;;;;;;10.27;9.98;;;27.20;99.90;;;;;;4982480;28;20233;-82
2023/10/03 10:13:12;;;;;;;10.30;10.00;;;26.90;99.90;;;;;;4982261;28;20296;-83
2023/10/03 10:16:20;;;;;;;10.60;10.30;;;26.70;99.90;;;;;;4983030;28;20218;-83
2023/10/03 10:19:00;;;;;;;10.57;10.27;;;26.80;99.90;;;;;;4981932;28;20235;-83
2023/10/03 10:21:31;;;;;;;10.60;10.30;;;27.00;99.90;;;;;;4982593;28;20236;-83
2023/10/03 10:24:24;;;;;;;10.57;10.27;;;27.30;99.90;;;;;;4982441;28;20237;-83
2023/10/03 10:26:53;;;;;;;10.70;10.40;;;27.80;99.90;;;;;;4983517;28;20325;-83
2023/10/03 10:29:23;;;;;;;10.60;10.30;;;28.10;99.90;;;;;;4982422;28;20297;-83
2023/10/03 10:31:59;;;;;;;10.48;10.18;;;28.00;99.90;;;;;;4982390;28;20241;-83
2023/10/03 10:34:35;;;;;;;10.40;10.10;;;27.70;99.90;;;;;;4985407;28;20219;-83
2023/10/03 10:37:05;;;;;;;10.23;9.93;;;27.60;99.90;;;;;;4993754;28;20245;-83
2023/10/03 10:40:12;;;;;;;10.40;10.10;;;27.60;99.90;;;;;;4984336;28;20324;-84
2023/10/03 10:43:00;;;;;;;10.10;9.80;;;27.40;99.90;;;;;;4983621;28;20245;-83
2023/10/03 10:45:27;;;;;;;10.45;10.15;;;27.60;99.90;;;;;;4986719;28;20248;-83
2023/10/03 10:47:57;;;;;;;10.40;10.10;;;27.60;99.90;;;;;;4984012;28;20225;-83
2023/10/03 10:50:27;;;;;;;10.52;10.23;;;27.60;99.90;;;;;;4988763;28;20233;-83
2023/10/03 10:52:57;;;;;;;10.73;10.43;;;27.40;99.90;;;;;;4987657;28;20300;-84
2023/10/03 10:55:26;;;;;;;10.75;10.45;;;27.20;99.90;;;;;;4986038;28;20292;-83
2023/10/03 10:58:10;;;;;;;10.57;10.27;;;27.00;99.90;;;;;;4985158;28;20222;-83
2023/10/03 11:00:38;;;;;;;10.60;10.30;;;26.90;99.90;;;;;;4981560;28;20252;-83
2023/10/03 11:03:08;;;;;;;10.55;10.25;;;27.00;99.90;;;;;;4983060;28;20242;-83
2023/10/03 11:05:44;;;;;;;10.60;10.30;;;27.30;99.90;;;;;;4984298;28;20248;-83
2023/10/03 11:08:11;;;;;;;10.55;10.25;;;27.80;99.90;;;;;;4985217;28;20247;-83
2023/10/03 11:10:52;;;;;;;10.40;10.10;;;28.10;99.90;;;;;;4983984;28;20244;-83
2023/10/03 11:13:19;;;;;;;10.40;10.10;;;28.40;99.90;;;;;;4983172;28;20300;-83
2023/10/03 11:15:49;;;;;;;10.60;10.30;;;28.50;99.90;;;;;;4982598;28;20226;-84
2023/10/03 11:18:27;;;;;;;10.50;10.20;;;28.50;99.90;;;;;;4982823;28;20234;-83
2023/10/03 11:20:55;;;;;;;10.77;10.48;;;28.60;99.90;;;;;;4982575;28;20814;-84
2023/10/03 11:23:23;;;;;;;10.70;10.40;;;28.90;99.90;;;;;;4982462;28;20242;-83
2023/10/03 11:25:54;;;;;;;10.80;10.50;;;29.30;99.90;;;;;;4982019;28;20328;-84
2023/10/03 11:28:22;;;;;;;10.73;10.43;;;29.50;99.90;;;;;;4982764;28;20233;-83
2023/10/03 11:31:02;;;;;;;10.80;10.50;;;29.50;99.90;;;;;;4982099;28;20272;-83
2023/10/03 11:33:43;;;;;;;10.88;10.57;;;29.60;99.90;;;;;;4982218;28;20261;-84
2023/10/03 11:36:11;;;;;;;10.88;10.57;;;29.60;99.90;;;;;;4982185;28;20316;-83
2023/10/03 11:38:45;;;;;;;10.88;10.57;;;29.90;99.90;;;;;;4982679;28;20250;-84
2023/10/03 11:41:13;;;;;;;11.00;10.70;;;30.20;99.90;;;;;;4982568;28;20241;-84
2023/10/03 11:43:46;;;;;;;11.07;10.77;;;30.60;99.90;;;;;;4981743;28;20758;-83
2023/10/03 11:46:13;;;;;;;10.82;10.52;;;30.90;99.90;;;;;;4981421;28;20309;-82
2023/10/03 11:48:41;;;;;;;10.55;10.25;;;30.60;99.90;;;;;;4984054;28;20471;-83
2023/10/03 11:51:08;;;;;;;11.02;10.73;;;30.30;99.90;;;;;;4989508;28;20238;-83
2023/10/03 11:53:35;;;;;;;10.80;10.50;;;29.90;99.90;;;;;;4985004;28;20257;-83
2023/10/03 11:56:03;;;;;;;10.80;10.50;;;29.70;99.90;;;;;;4987981;28;20240;-83
2023/10/03 11:58:30;;;;;;;10.48;10.18;;;29.40;99.90;;;;;;4982788;28;20259;-83
2023/10/03 12:00:57;;;;;;;10.57;10.27;;;29.30;99.90;;;;;;4982027;28;20252;-83
2023/10/03 12:03:24;;;;;;;10.60;10.30;;;29.00;99.90;;;;;;4982355;28;20264;-83
2023/10/03 12:05:56;;;;;;;10.70;10.40;;;28.80;99.90;;;;;;4981965;28;20265;-84
2023/10/03 12:08:24;;;;;;;10.70;10.40;;;28.80;99.90;;;;;;4982977;28;20234;-84
2023/10/03 12:10:54;;;;;;;10.77;10.48;;;28.90;99.90;;;;;;4985294;28;20252;-84
2023/10/03 12:13:21;;;;;;;10.88;10.57;;;28.90;99.90;;;;;;4986298;28;20238;-82
2023/10/03 12:15:49;;;;;;;10.90;10.60;;;28.80;99.90;;;;;;4990921;28;20300;-83
2023/10/03 12:18:17;;;;;;;10.90;10.60;;;28.70;99.90;;;;;;4988591;28;20220;-84
2023/10/03 12:20:45;;;;;;;10.70;10.40;;;28.50;99.90;;;;;;4985879;28;20241;-83
2023/10/03 12:23:15;;;;;;;10.70;10.40;;;28.10;99.90;;;;;;4985149;28;20316;-83
2023/10/03 12:25:42;;;;;;;10.60;10.30;;;28.00;99.90;;;;;;4985286;28;20285;-83
2023/10/03 12:28:10;;;;;;;10.70;10.40;;;27.90;99.90;;;;;;4985945;28;20325;-84
2023/10/03 12:30:37;;;;;;;10.50;10.20;;;27.90;99.90;;;;;;4985413;28;20242;-83
2023/10/03 12:33:05;;;;;;;10.40;10.10;;;28.00;99.90;;;;;;4986070;28;20256;-83
2023/10/03 12:35:32;;;;;;;10.35;10.05;;;27.80;99.90;;;;;;4986843;28;20237;-84
2023/10/03 12:37:59;;;;;;;10.40;10.10;;;27.60;99.90;;;;;;4987402;28;20226;-83
2023/10/03 12:40:30;;;;;;;10.45;10.15;;;27.50;99.90;;;;;;4986639;28;20297;-83
2023/10/03 12:42:57;;;;;;;10.50;10.20;;;27.40;99.90;;;;;;4985900;28;20241;-84
2023/10/03 12:45:25;;;;;;;10.50;10.20;;;27.20;99.90;;;;;;4986268;28;20233;-83
2023/10/03 12:47:53;;;;;;;10.20;9.90;;;27.00;99.90;;;;;;4985749;28;20367;-83
2023/10/03 12:50:23;;;;;;;10.40;10.10;;;26.70;99.90;;;;;;4985462;28;20245;-84
2023/10/03 12:52:50;;;;;;;10.20;9.90;;;26.60;99.90;;;;;;4987021;28;20241;-83
2023/10/03 12:55:18;;;;;;;10.60;10.30;;;26.60;99.90;;;;;;4985754;28;20328;-85
2023/10/03 12:57:54;;;;;;;10.25;9.95;;;26.50;99.90;;;;;;4984974;28;20220;-83
2023/10/03 13:00:23;;;;;;;10.50;10.20;;;26.20;99.90;;;;;;4989297;28;20241;-83
2023/10/03 13:02:56;;;;;;;10.30;10.00;;;26.10;99.90;;;;;;4987345;28;20237;-83
2023/10/03 13:05:24;;;;;;;10.88;10.57;;;26.00;99.90;;;;;;4987092;28;20281;-84
2023/10/03 13:07:53;;;;;;;10.60;10.30;;;26.10;99.90;;;;;;4985111;28;20238;-84
2023/10/03 13:10:25;;;;;;;10.52;10.23;;;26.00;99.90;;;;;;4985105;28;20237;-83
2023/10/03 13:12:55;;;;;;;10.40;10.10;;;26.00;99.90;;;;;;4985813;28;20266;-84
2023/10/03 13:15:22;;;;;;;10.50;10.20;;;25.90;99.90;;;;;;4987453;28;20230;-84
2023/10/03 13:17:53;;;;;;;10.55;10.25;;;25.90;99.90;;;;;;4986885;28;20221;-83
2023/10/03 13:20:24;;;;;;;10.70;10.40;;;25.90;99.90;;;;;;4986849;28;20234;-84
2023/10/03 13:22:52;;;;;;;10.48;10.18;;;25.80;99.90;;;;;;4986616;28;20242;-84
2023/10/03 13:25:20;;;;;;;10.38;10.07;;;25.80;99.90;;;;;;4985571;28;20270;-84
2023/10/03 13:27:48;;;;;;;10.50;10.20;;;25.80;99.90;;;;;;4985521;28;20225;-85
2023/10/03 13:30:19;;;;;;;10.55;10.25;;;25.80;99.90;;;;;;4985902;28;20242;-84
2023/10/03 13:32:47;;;;;;;10.80;10.50;;;25.80;99.90;;;;;;4985345;28;20257;-83
2023/10/03 13:35:15;;;;;;;10.73;10.43;;;25.80;99.90;;;;;;4985423;28;20240;-83
2023/10/03 13:37:43;;;;;;;10.90;10.60;;;25.70;99.90;;;;;;4986851;28;20232;-84
2023/10/03 13:40:11;;;;;;;10.90;10.60;;;25.60;99.90;;;;;;4984415;28;20243;-84
2023/10/03 13:42:40;;;;;;;10.80;10.50;;;25.60;99.90;;;;;;4984146;28;20248;-83
2023/10/03 13:45:08;;;;;;;10.65;10.35;;;25.50;99.90;;;;;;4984777;28;20289;-83
2023/10/03 13:47:37;;;;;;;10.52;10.23;;;25.40;99.90;;;;;;4984862;28;20264;-85
2023/10/03 13:50:08;;;;;;;10.68;10.38;;;25.30;99.90;;;;;;4985079;28;20307;-85
2023/10/03 13:52:37;;;;;;;10.60;10.30;;;25.30;99.90;;;;;;4984178;28;20264;-83
2023/10/03 13:55:06;;;;;;;10.52;10.23;;;25.40;99.90;;;;;;4985562;28;20331;-84
2023/10/03 13:57:35;;;;;;;10.57;10.27;;;25.30;99.90;;;;;;4984789;28;20222;-83
2023/10/03 14:00:06;;;;;;;10.55;10.25;;;25.30;99.90;;;;;;4984291;28;20293;-83
2023/10/03 14:02:34;;;;;;;10.50;10.20;;;25.30;99.90;;;;;;4982717;28;20245;-83
2023/10/03 14:05:04;;;;;;;10.52;10.23;;;25.10;99.90;;;;;;4984531;28;20238;-85
2023/10/03 14:07:32;;;;;;;10.48;10.18;;;25.00;99.90;;;;;;4983975;28;20276;-84
2023/10/03 14:10:00;;;;;;;10.57;10.27;;;25.00;99.90;;;;;;4983348;28;20305;-83
2023/10/03 14:12:27;;;;;;;10.57;10.27;;;24.90;99.90;;;;;;4982438;28;20237;-83
2023/10/03 14:14:56;;;;;;;10.60;10.30;;;24.90;99.90;;;;;;4983355;28;20217;-84
2023/10/03 14:17:24;;;;;;;10.48;10.18;;;24.80;99.90;;;;;;4982754;28;20221;-83
2023/10/03 14:19:51;;;;;;;10.40;10.10;;;24.70;99.90;;;;;;4982847;28;20233;-83
2023/10/03 14:22:20;;;;;;;10.80;10.50;;;24.60;99.90;;;;;;4982689;28;20289;-83